• Join FlightAware (Why Join?)
  • Login
  • US Flag 
08:47PM EDT


 

Airport Tracker/Info


-or-


 

Live Flight TrackerFlight Track Log ✈ CTL13 ✈ 19-Jul-2013 ✈ KBKL - KEYE

Flight Track Log - Related Links

Times and Time Zones

All times are in EDT time to prevent confusion due to time zone crossing. See the CTL13 flight status page for this flight to view local times or setup timezone preferences in your user account.

Time Position Orientation Groundspeed Altitude Reporting Facility
EDT Latitude Longitude Course Direction KTS MPH feet Rate Location/Type
07:04PM 41.5144 -81.7117 340° North 130 150 1,000  Level Cleveland Center
07:05PM 41.5622 -81.7347 340° North 147 169 2,000 420 Climbing Cleveland Center
07:06PM 41.6081 -81.7522 344° North 177 204 2,000 300 Level Cleveland Center
07:07PM 41.6450 -81.7864 325° Northwest 147 169 2,700 660 Climbing Cleveland Center
07:08PM 41.6719 -81.8203 317° Northwest 128 147 3,400 660 Climbing Cleveland Center
07:09PM 41.6611 -81.8589 249° West 115 132 4,100 540 Climbing Cleveland Center
07:10PM 41.6461 -81.8975 243° Southwest 117 135 4,600 480 Climbing Cleveland Center
07:11PM 41.6267 -81.9358 236° Southwest 116 133 5,100 480 Climbing Cleveland Center
07:12PM 41.6097 -81.9744 240° Southwest 122 140 5,600 420 Climbing Cleveland Center
07:13PM 41.5906 -82.0100 234° Southwest 118 136 6,000 180 Climbing Cleveland Center
07:14PM 41.5733 -82.0542 242° Southwest 140 161 6,000  Level Cleveland Center
07:15PM 41.5539 -82.0981 239° Southwest 148 170 6,000  Level Cleveland Center
07:16PM 41.5303 -82.1475 237° Southwest 145 167 6,000  Level Cleveland Center
07:17PM 41.5086 -82.1969 240° Southwest 147 169 6,100 420 Climbing Cleveland Center
07:18PM 41.4914 -82.2353 239° Southwest 114 131 6,900 540 Climbing Cleveland Center
07:19PM 41.4722 -82.2736 236° Southwest 121 139 7,300 360 Climbing Cleveland Center
07:20PM 41.4550 -82.3119 239° Southwest 128 147 7,700 180 Climbing Cleveland Center
07:22PM 41.4249 -82.3659 233° Southwest  Level FlightAware Approximate
07:25PM 41.3600 -82.5169 238° Southwest 163 188 8,500  Level Cleveland Center
07:26PM 41.3425 -82.5578 240° Southwest 141 162 9,100 420 Climbing Cleveland Center
07:27PM 41.3253 -82.5933 237° Southwest 126 145 9,400 300 Climbing Cleveland Center
07:28PM 41.3058 -82.6342 238° Southwest 126 145 9,800 360 Climbing Cleveland Center
07:29PM 41.2694 -82.6745 238° Southwest  Level FlightAware Approximate
07:29PM 41.2883 -82.6722 239° Southwest 126 145 10,200  Level Cleveland Center
07:30PM 41.2485 -82.7196 238° Southwest  Level FlightAware Approximate
07:30PM 41.2689 -82.7131 238° Southwest 132 152 10,100  Level Cleveland Center
07:31PM 41.2450 -82.7567 234° Southwest 144 166 10,100  Level Cleveland Center
07:32PM 41.2256 -82.8028 241° Southwest 144 166 10,100 -60 Level Cleveland Center
07:33PM 41.2017 -82.8461 234° Southwest 144 166 10,000  Descending Cleveland Center
07:34PM 41.1800 -82.8869 235° Southwest 144 166 10,100  Climbing Cleveland Center
07:35PM 41.1603 -82.9303 239° Southwest 144 166 10,100  Level Cleveland Center
07:36PM 41.1386 -82.9764 238° Southwest 144 166 10,100  Level Cleveland Center
07:37PM 41.1167 -83.0225 238° Southwest 144 166 10,100  Level Cleveland Center
07:38PM 41.0928 -83.0656 234° Southwest 144 166 10,100 -60 Level Cleveland Center
07:39PM 41.0731 -83.1089 239° Southwest 144 166 10,000  Descending Cleveland Center
07:40PM 41.0514 -83.1522 236° Southwest 144 166 10,100  Climbing Cleveland Center
07:41PM 41.0317 -83.1925 237° Southwest 144 166 10,100  Level Cleveland Center
07:42PM 41.0117 -83.2414 242° Southwest 144 166 10,100  Level Cleveland Center
07:43PM 40.9897 -83.2872 238° Southwest 149 171 10,100  Level Cleveland Center
07:44PM 40.9681 -83.3303 236° Southwest 149 171 10,100  Level Cleveland Center
07:45PM 40.9483 -83.3708 237° Southwest 149 171 10,100  Level Cleveland Center
07:46PM 40.9261 -83.4167 237° Southwest 149 171 10,100  Level Cleveland Center
07:47PM 40.9042 -83.4597 236° Southwest 149 171 10,100  Level Cleveland Center
07:48PM 40.8822 -83.5053 238° Southwest 149 171 10,100  Level Cleveland Center
07:49PM 40.8625 -83.5456 237° Southwest 149 171 10,100  Level Cleveland Center
07:51PM 40.8301 -83.6092 236° Southwest  Level FlightAware Approximate
07:53PM 40.7664 -83.7353 238° Southwest 150 173 10,100  Level Indianapolis Center
07:54PM 40.7408 -83.7881 237° Southwest 148 170 10,100  Level Indianapolis Center
07:55PM 40.7167 -83.8353 236° Southwest 151 174 10,100  Level Indianapolis Center
07:56PM 40.6925 -83.8831 236° Southwest 150 173 10,200 -60 Climbing Indianapolis Center
07:57PM 40.6711 -83.9281 238° Southwest 150 173 10,000 -180 Descending Indianapolis Center
07:58PM 40.6791 -83.9159 238° Southwest  Level FlightAware Approximate
07:58PM 40.6481 -83.9744 237° Southwest 151 174 9,900  Level Indianapolis Center
07:59PM 40.6244 -84.0208 236° Southwest 151 174 10,100  Climbing Indianapolis Center
08:00PM 40.6028 -84.0686 239° Southwest 151 174 10,000  Descending Indianapolis Center
08:01PM 40.5803 -84.1158 238° Southwest 151 174 10,100  Climbing Indianapolis Center
08:03PM 40.5511 -84.1725 236° Southwest 153 176 10,000  Descending Indianapolis Center
08:04PM 40.5292 -84.2208 239° Southwest 151 174 10,100  Climbing Indianapolis Center
08:05PM 40.5058 -84.2656 236° Southwest 152 175 10,000  Descending Indianapolis Center
08:06PM 40.4831 -84.3131 238° Southwest 153 176 10,100  Climbing Indianapolis Center
08:07PM 40.4622 -84.3575 238° Southwest 152 175 10,100 -60 Level Indianapolis Center
08:08PM 40.4378 -84.4083 238° Southwest 156 180 10,000 -60 Descending Indianapolis Center
08:09PM 40.4136 -84.4561 236° Southwest 157 181 10,000  Level Indianapolis Center
08:10PM 40.3897 -84.5058 238° Southwest 157 181 10,000  Level Indianapolis Center
08:11PM 40.3647 -84.5572 237° Southwest 157 181 10,000  Level Indianapolis Center
08:12PM 40.3436 -84.6017 238° Southwest 153 176 10,100  Climbing Indianapolis Center
08:13PM 40.3189 -84.6506 236° Southwest 152 175 10,000  Descending Indianapolis Center
08:14PM 40.2953 -84.6975 237° Southwest 156 180 10,100  Climbing Indianapolis Center
08:15PM 40.2725 -84.7464 239° Southwest 157 181 10,000 -60 Descending Indianapolis Center
08:16PM 40.2483 -84.7942 236° Southwest 155 178 10,000  Level Indianapolis Center
08:17PM 40.2261 -84.8422 239° Southwest 155 178 10,000  Level Indianapolis Center
08:18PM 40.1961 -84.8975 235° Southwest 158 182 10,000  Level Indianapolis Center
08:19PM 40.1803 -84.9322 239° Southwest 156 180 10,000  Level Indianapolis Center
08:20PM 40.1661 -84.9844 250° West 153 176 10,100  Climbing Indianapolis Center
08:21PM 40.1494 -85.0497 252° West 153 176 10,000  Descending Indianapolis Center
08:22PM 40.1364 -85.1014 252° West 151 174 10,100  Climbing Indianapolis Center
08:23PM 40.1231 -85.1531 251° West 151 174 10,100  Level Indianapolis Center
08:24PM 40.1125 -85.2092 256° West 157 181 10,100  Level Indianapolis Center
08:25PM 40.1008 -85.2736 257° West 154 177 10,100  Level Indianapolis Center
08:26PM 40.0906 -85.3272 256° West 153 176 10,100  Level Indianapolis Center
08:27PM 40.0831 -85.3800 259° West 150 173 10,100 -120 Level Indianapolis Center
08:28PM 40.0717 -85.4356 255° West 156 180 9,900 -300 Descending Indianapolis Center
08:29PM 40.0603 -85.4939 256° West 164 189 9,500 -420 Descending Indianapolis Center
08:30PM 40.0494 -85.5544 257° West 170 196 9,100 -480 Descending Indianapolis Center
08:31PM 40.0381 -85.6153 256° West 173 199 8,600 -540 Descending Indianapolis Center
08:32PM 40.0300 -85.6758 260° West 171 197 8,100 -540 Descending Indianapolis Center
08:33PM 40.0167 -85.7472 256° West 170 196 7,500 -600 Descending Indianapolis Center
08:34PM 40.0053 -85.8081 256° West 171 197 7,000 -540 Descending Indianapolis Center
08:35PM 39.9933 -85.8678 255° West 171 197 6,500 -540 Descending Indianapolis Center
08:36PM 39.9819 -85.9261 256° West 170 196 6,000 -240 Descending Indianapolis Center
08:37PM 39.9714 -85.9811 256° West 165 190 6,100  Climbing Indianapolis Center
08:38PM 39.9611 -86.0328 255° West 156 180 6,000 -420 Descending Indianapolis Center
08:39PM 39.9511 -86.0875 257° West 154 177 5,300 -780 Descending Indianapolis Center
08:40PM 39.9389 -86.1564 257° West 160 184 4,500 -780 Descending Indianapolis Center
08:41PM 39.9314 -86.1992 257° West 158 182 3,800 -720 Descending Indianapolis Center